createdAt,value
2022-10-30T00:01:20.526Z,4.64
2022-10-30T00:03:48.610Z,4.49
2022-10-30T00:08:45.208Z,4.75
2022-10-30T00:11:14.290Z,4.65
2022-10-30T00:13:43.223Z,4.68
2022-10-30T00:16:11.076Z,4.80
2022-10-30T00:18:42.424Z,4.86
2022-10-30T00:21:13.763Z,4.64
2022-10-30T00:23:49.363Z,4.74
2022-10-30T00:26:18.745Z,4.83
2022-10-30T00:28:54.351Z,4.85
2022-10-30T00:31:23.139Z,4.52
2022-10-30T00:33:52.825Z,4.16
2022-10-30T00:36:21.470Z,4.20
2022-10-30T00:38:49.438Z,4.46
2022-10-30T00:41:23.507Z,4.13
2022-10-30T00:43:52.262Z,4.36
2022-10-30T00:46:40.813Z,4.37
2022-10-30T00:49:16.957Z,4.49
2022-10-30T00:51:54.321Z,4.42
2022-10-30T00:54:23.930Z,4.17
2022-10-30T00:56:52.788Z,4.27
2022-10-30T00:59:28.519Z,4.39
2022-10-30T01:01:58.010Z,4.42
2022-10-30T01:04:29.947Z,4.32
2022-10-30T01:07:00.257Z,4.19
2022-10-30T01:09:28.220Z,4.22
2022-10-30T01:11:58.374Z,4.39
2022-10-30T01:14:26.903Z,4.45
2022-10-30T01:17:32.183Z,4.49
2022-10-30T01:20:10.813Z,4.27
2022-10-30T01:22:52.333Z,4.04
2022-10-30T01:25:32.728Z,4.21
2022-10-30T01:28:28.600Z,4.18
2022-10-30T01:31:33.903Z,3.76
2022-10-30T01:34:22.093Z,3.96
2022-10-30T01:37:00.593Z,3.88
2022-10-30T01:39:34.778Z,3.83
2022-10-30T01:42:10.017Z,3.94
2022-10-30T01:44:39.285Z,3.99
2022-10-30T01:47:25.734Z,3.79
2022-10-30T01:50:35.185Z,3.45
2022-10-30T01:53:03.015Z,3.84
2022-10-30T01:56:17.095Z,3.97
2022-10-30T01:58:57.249Z,4.05
2022-10-30T02:02:40.997Z,3.72
2022-10-30T02:05:20.361Z,3.47
2022-10-30T02:07:48.814Z,3.51
2022-10-30T02:10:16.831Z,3.73
2022-10-30T02:12:44.856Z,3.58
2022-10-30T02:15:13.523Z,3.66
2022-10-30T02:17:41.639Z,3.76
2022-10-30T02:20:22.664Z,3.78
2022-10-30T02:22:54.457Z,3.84
2022-10-30T02:25:26.010Z,3.94
2022-10-30T02:27:54.624Z,3.96
2022-10-30T02:30:22.533Z,3.92
2022-10-30T02:32:50.559Z,3.95
2022-10-30T02:35:18.407Z,4.00
2022-10-30T02:37:49.155Z,3.73
2022-10-30T02:40:17.288Z,3.81
2022-10-30T02:42:45.254Z,3.80
2022-10-30T02:45:15.193Z,3.86
2022-10-30T02:47:43.049Z,3.67
2022-10-30T02:50:11.854Z,3.76
2022-10-30T02:52:40.106Z,3.85
2022-10-30T02:55:09.881Z,3.78
2022-10-30T02:57:39.368Z,3.45
2022-10-30T03:00:08.054Z,3.61
2022-10-30T03:02:36.106Z,3.60
2022-10-30T03:05:04.288Z,3.60
2022-10-30T03:07:32.749Z,3.67
2022-10-30T03:10:00.651Z,3.42
2022-10-30T03:12:28.583Z,3.23
2022-10-30T03:14:56.676Z,3.26
2022-10-30T03:17:24.505Z,3.35
2022-10-30T03:19:52.417Z,3.37
2022-10-30T03:22:20.486Z,3.34
2022-10-30T03:24:48.405Z,3.13
2022-10-30T03:27:16.260Z,3.03
2022-10-30T03:29:44.235Z,2.89
2022-10-30T03:32:13.657Z,3.09
2022-10-30T03:34:48.124Z,2.80
2022-10-30T03:37:16.125Z,2.97
2022-10-30T03:39:44.116Z,2.92
2022-10-30T03:42:12.008Z,3.01
2022-10-30T03:44:40.043Z,2.84
2022-10-30T03:47:08.877Z,2.93
2022-10-30T03:49:41.739Z,2.93
2022-10-30T03:52:13.514Z,2.58
2022-10-30T03:54:41.508Z,2.85
2022-10-30T03:57:11.103Z,2.88
2022-10-30T03:59:48.552Z,3.04
2022-10-30T04:02:35.082Z,3.06
2022-10-30T04:05:03.288Z,3.09
2022-10-30T04:07:31.243Z,3.13
2022-10-30T04:09:59.825Z,3.23
2022-10-30T04:12:29.918Z,3.28
2022-10-30T04:14:57.896Z,3.28
2022-10-30T04:17:26.164Z,3.22
2022-10-30T04:19:54.005Z,3.32
2022-10-30T04:22:22.580Z,3.31
2022-10-30T04:25:16.663Z,3.28
2022-10-30T04:27:50.528Z,3.32
2022-10-30T04:30:21.640Z,3.05
2022-10-30T04:33:00.620Z,2.63
2022-10-30T04:35:32.615Z,2.83
2022-10-30T04:38:03.430Z,2.99
2022-10-30T04:45:32.225Z,3.12
2022-10-30T04:48:02.651Z,3.09
2022-10-30T04:50:33.197Z,3.09
2022-10-30T04:53:06.876Z,3.07
2022-10-30T04:55:35.606Z,3.13
2022-10-30T04:58:03.735Z,3.14
2022-10-30T05:00:35.963Z,3.09
2022-10-30T05:03:20.015Z,3.04
2022-10-30T05:06:03.540Z,3.08
2022-10-30T05:08:31.815Z,3.10
2022-10-30T05:11:05.562Z,3.11
2022-10-30T05:13:33.540Z,3.04
2022-10-30T05:16:01.644Z,2.99
2022-10-30T05:18:29.608Z,3.09
2022-10-30T05:20:57.543Z,3.08
2022-10-30T05:23:25.560Z,3.16
2022-10-30T05:25:53.485Z,2.93
2022-10-30T05:28:21.638Z,2.88
2022-10-30T05:30:56.236Z,2.85
2022-10-30T05:33:47.424Z,2.95
2022-10-30T05:36:15.509Z,2.85
2022-10-30T05:38:45.163Z,2.95
2022-10-30T05:41:20.043Z,3.00
2022-10-30T05:43:48.579Z,3.14
2022-10-30T05:46:16.728Z,3.00
2022-10-30T05:48:44.774Z,2.80
2022-10-30T05:51:12.829Z,2.93
2022-10-30T05:53:49.390Z,2.98
2022-10-30T05:56:17.464Z,3.23
2022-10-30T05:58:45.496Z,3.33
2022-10-30T06:01:13.874Z,3.24
2022-10-30T06:03:45.999Z,3.21
2022-10-30T06:06:14.224Z,3.14
2022-10-30T06:08:42.343Z,3.13
2022-10-30T06:11:42.289Z,3.14
2022-10-30T06:14:11.919Z,3.12
2022-10-30T06:16:46.410Z,3.14
2022-10-30T06:19:32.809Z,3.19
2022-10-30T06:22:15.481Z,3.26
2022-10-30T06:24:50.290Z,3.43
2022-10-30T06:27:25.253Z,3.57
2022-10-30T06:29:55.282Z,4.01
2022-10-30T06:32:23.689Z,4.23
2022-10-30T06:34:53.437Z,4.43
2022-10-30T06:37:22.016Z,4.66
2022-10-30T06:39:50.802Z,4.47
2022-10-30T06:42:46.992Z,5.03
2022-10-30T06:45:33.751Z,4.87
2022-10-30T06:48:02.921Z,5.06
2022-10-30T06:50:36.123Z,5.24
2022-10-30T06:53:04.591Z,5.18
2022-10-30T06:55:33.946Z,5.29
2022-10-30T06:58:20.672Z,5.48
2022-10-30T07:00:56.831Z,5.67
2022-10-30T07:03:44.307Z,6.01
2022-10-30T07:06:13.157Z,6.09
2022-10-30T07:08:41.565Z,6.28
2022-10-30T07:11:11.685Z,6.13
2022-10-30T07:13:58.915Z,6.46
2022-10-30T07:16:49.180Z,7.60
2022-10-30T07:19:18.139Z,8.24
2022-10-30T07:21:46.774Z,8.25
2022-10-30T07:24:15.529Z,8.18
2022-10-30T07:27:04.059Z,8.17
2022-10-30T07:51:43.178Z,10.88
2022-10-30T07:54:13.830Z,11.17
2022-10-30T07:56:42.319Z,11.15
2022-10-30T07:59:22.205Z,12.12
2022-10-30T08:02:16.875Z,12.09
2022-10-30T08:05:06.637Z,12.21
2022-10-30T08:07:55.640Z,12.21
2022-10-30T08:10:24.178Z,12.39
2022-10-30T08:12:52.497Z,12.59
2022-10-30T08:15:20.869Z,13.04
2022-10-30T08:17:50.030Z,13.33
2022-10-30T08:20:19.405Z,13.46
2022-10-30T08:22:57.940Z,13.61
2022-10-30T08:25:30.900Z,14.06
2022-10-30T08:28:01.841Z,14.18
2022-10-30T08:30:36.399Z,14.84
2022-10-30T08:33:08.565Z,15.22
2022-10-30T08:35:58.143Z,15.43
2022-10-30T08:38:28.904Z,15.82
2022-10-30T08:41:33.557Z,16.36
2022-10-30T08:44:02.293Z,17.11
2022-10-30T08:46:41.777Z,17.91
2022-10-30T08:49:13.047Z,18.31
2022-10-30T08:51:48.273Z,19.21
2022-10-30T08:54:16.381Z,19.53
2022-10-30T08:56:44.978Z,20.32
2022-10-30T08:59:18.675Z,20.82
2022-10-30T09:01:51.432Z,20.52
2022-10-30T09:04:19.756Z,20.05
2022-10-30T09:07:08.867Z,19.91
2022-10-30T09:12:28.144Z,21.60
2022-10-30T09:14:56.224Z,22.54
2022-10-30T09:17:24.861Z,24.14
2022-10-30T09:19:53.993Z,25.55
2022-10-30T09:22:33.634Z,27.45
2022-10-30T09:25:03.365Z,28.80
2022-10-30T09:27:50.519Z,29.19
2022-10-30T09:30:20.133Z,29.47
2022-10-30T09:32:58.690Z,29.01
2022-10-30T09:35:47.886Z,29.58
2022-10-30T09:38:16.512Z,29.63
2022-10-30T09:41:10.862Z,29.78
2022-10-30T09:43:57.873Z,30.71
2022-10-30T09:46:52.155Z,29.56
2022-10-30T09:50:03.744Z,30.26
2022-10-30T09:52:59.141Z,29.49
2022-10-30T09:55:32.094Z,29.57
2022-10-30T09:58:24.292Z,30.00
2022-10-30T10:01:14.238Z,29.77
2022-10-30T10:04:15.899Z,30.09
2022-10-30T10:06:47.270Z,30.73
2022-10-30T10:09:42.325Z,30.88
2022-10-30T10:12:37.797Z,30.76
2022-10-30T10:15:14.986Z,31.21
2022-10-30T10:17:48.553Z,32.10
2022-10-30T10:20:44.158Z,33.28
2022-10-30T10:23:26.788Z,34.16
2022-10-30T10:25:55.183Z,34.06
2022-10-30T10:28:36.975Z,33.38
2022-10-30T10:31:38.395Z,34.38
2022-10-30T10:34:25.859Z,33.72
2022-10-30T10:37:05.176Z,33.65
2022-10-30T10:40:38.578Z,34.21
2022-10-30T10:43:24.687Z,34.81
2022-10-30T10:46:29.645Z,34.51
2022-10-30T10:49:13.392Z,35.20
2022-10-30T10:51:48.003Z,35.33
2022-10-30T10:54:28.740Z,35.82
2022-10-30T10:56:59.926Z,36.39
2022-10-30T10:59:38.878Z,36.30
2022-10-30T11:02:10.066Z,36.26
2022-10-30T11:04:43.888Z,36.14
2022-10-30T11:07:29.767Z,35.90
2022-10-30T11:09:58.671Z,36.52
2022-10-30T11:12:36.377Z,37.08
2022-10-30T11:15:46.701Z,37.23
2022-10-30T11:18:16.229Z,36.36
2022-10-30T11:21:02.600Z,34.88
2022-10-30T11:23:42.302Z,34.72
2022-10-30T11:26:34.219Z,34.47
2022-10-30T11:29:14.130Z,34.10
2022-10-30T11:31:44.216Z,33.59
2022-10-30T11:34:18.404Z,32.24
2022-10-30T11:36:47.302Z,31.57
2022-10-30T11:39:29.996Z,31.01
2022-10-30T11:42:19.729Z,29.90
2022-10-30T11:44:52.408Z,28.66
2022-10-30T11:50:36.075Z,26.73
2022-10-30T11:53:17.150Z,26.37
2022-10-30T11:55:50.022Z,25.94
2022-10-30T11:58:42.799Z,25.49
2022-10-30T12:01:13.682Z,25.27
2022-10-30T12:03:42.726Z,25.18
2022-10-30T12:06:29.366Z,24.85
2022-10-30T12:09:22.142Z,24.67
2022-10-30T12:11:50.867Z,24.44
2022-10-30T12:14:21.166Z,24.28
2022-10-30T12:16:52.581Z,24.02
2022-10-30T12:19:24.030Z,23.99
2022-10-30T12:21:55.137Z,23.95
2022-10-30T12:24:37.263Z,23.78
2022-10-30T12:27:19.744Z,23.56
2022-10-30T12:33:02.569Z,23.52
2022-10-30T12:35:36.944Z,23.42
2022-10-30T12:38:14.261Z,23.34
2022-10-30T12:40:54.780Z,23.29
2022-10-30T12:43:33.253Z,23.02
2022-10-30T12:46:17.250Z,23.06
2022-10-30T12:49:01.554Z,23.15
2022-10-30T12:52:06.308Z,23.24
2022-10-30T12:54:59.146Z,23.15
2022-10-30T12:57:37.906Z,23.11
2022-10-30T13:00:16.240Z,23.22
2022-10-30T13:03:06.069Z,23.11
2022-10-30T13:05:40.443Z,23.15
2022-10-30T13:08:27.394Z,23.12
2022-10-30T13:11:02.153Z,23.27
2022-10-30T13:13:48.826Z,23.51
2022-10-30T13:16:26.335Z,23.86
2022-10-30T13:18:58.193Z,23.56
2022-10-30T13:21:38.721Z,23.50
2022-10-30T13:24:21.584Z,23.42
2022-10-30T13:27:14.273Z,23.54
2022-10-30T13:30:01.817Z,23.53
2022-10-30T13:33:12.174Z,23.57
2022-10-30T13:36:07.342Z,23.59
2022-10-30T13:39:09.621Z,23.53
2022-10-30T13:41:43.757Z,23.04
2022-10-30T13:44:36.081Z,22.76
2022-10-30T13:47:29.390Z,22.24
2022-10-30T13:50:31.450Z,22.14
2022-10-30T13:53:03.822Z,21.88
2022-10-30T13:55:35.584Z,21.58
2022-10-30T13:58:14.840Z,21.47
2022-10-30T14:00:43.376Z,21.23
2022-10-30T14:03:41.234Z,21.04
2022-10-30T14:06:12.704Z,21.00
2022-10-30T14:09:11.337Z,20.76
2022-10-30T14:11:40.066Z,20.65
2022-10-30T14:14:30.755Z,20.64
2022-10-30T14:17:14.982Z,20.60
2022-10-30T14:20:13.355Z,20.65
2022-10-30T14:22:42.181Z,20.61
2022-10-30T14:25:15.488Z,20.42
2022-10-30T14:27:56.711Z,20.15
2022-10-30T14:30:28.926Z,20.38
2022-10-30T14:32:57.532Z,20.40
2022-10-30T14:35:39.896Z,20.42
2022-10-30T14:38:08.417Z,20.43
2022-10-30T14:40:52.108Z,20.44
2022-10-30T14:43:36.787Z,20.33
2022-10-30T14:46:28.891Z,20.37
2022-10-30T14:49:06.394Z,20.30
2022-10-30T14:52:04.654Z,20.19
2022-10-30T14:54:47.435Z,20.00
2022-10-30T14:58:03.155Z,19.86
2022-10-30T15:00:35.318Z,19.77
2022-10-30T15:03:07.763Z,19.71
2022-10-30T15:05:53.007Z,19.58
2022-10-30T15:08:30.124Z,19.56
2022-10-30T15:11:07.475Z,19.46
2022-10-30T15:13:39.475Z,19.36
2022-10-30T15:16:09.756Z,19.32
2022-10-30T15:18:40.629Z,19.23
2022-10-30T15:21:23.408Z,19.22
2022-10-30T15:23:58.023Z,19.16
2022-10-30T15:26:39.346Z,19.11
2022-10-30T15:29:17.434Z,18.69
2022-10-30T15:31:46.190Z,18.69
2022-10-30T15:34:22.992Z,18.64
2022-10-30T15:36:51.769Z,18.67
2022-10-30T15:39:20.506Z,18.66
2022-10-30T15:41:54.489Z,18.70
2022-10-30T15:44:38.497Z,18.71
2022-10-30T15:47:16.316Z,18.73
2022-10-30T15:49:55.602Z,18.70
2022-10-30T15:52:28.301Z,18.81
2022-10-30T15:55:00.951Z,18.72
2022-10-30T15:58:02.253Z,18.70
2022-10-30T16:00:35.229Z,18.64
2022-10-30T16:03:04.061Z,18.73
2022-10-30T16:05:33.251Z,18.76
2022-10-30T16:08:03.726Z,18.70
2022-10-30T16:10:36.153Z,18.70
2022-10-30T16:13:05.177Z,18.61
2022-10-30T16:15:39.216Z,18.57
2022-10-30T16:18:19.548Z,18.49
2022-10-30T16:20:53.279Z,18.50
2022-10-30T16:23:22.188Z,18.34
2022-10-30T16:25:59.754Z,18.30
2022-10-30T16:28:32.061Z,18.25
2022-10-30T16:31:06.918Z,18.08
2022-10-30T16:33:36.989Z,18.05
2022-10-30T16:36:06.525Z,17.61
2022-10-30T16:38:37.150Z,17.76
2022-10-30T16:41:07.253Z,17.64
2022-10-30T16:43:44.561Z,17.59
2022-10-30T16:46:15.551Z,17.61
2022-10-30T16:48:48.727Z,17.55
2022-10-30T16:51:21.316Z,17.44
2022-10-30T16:56:35.497Z,17.57
2022-10-30T17:07:38.061Z,16.91
2022-10-30T17:10:33.663Z,17.10
2022-10-30T17:13:43.187Z,16.92
2022-10-30T17:16:23.440Z,16.92
2022-10-30T17:19:05.103Z,16.83
2022-10-30T17:21:43.259Z,16.73
2022-10-30T17:24:23.401Z,16.66
2022-10-30T17:27:28.558Z,16.56
2022-10-30T17:29:58.352Z,16.48
2022-10-30T17:32:30.062Z,16.43
2022-10-30T17:35:16.596Z,16.36
2022-10-30T17:37:45.429Z,16.27
2022-10-30T17:40:14.842Z,16.16
2022-10-30T17:42:43.815Z,16.15
2022-10-30T17:50:51.815Z,15.82
2022-10-30T17:53:44.928Z,15.63
2022-10-30T17:56:20.854Z,15.61
2022-10-30T17:59:35.417Z,15.51
2022-10-30T18:02:45.576Z,15.42
2022-10-30T18:22:33.576Z,14.26
2022-10-30T18:25:03.146Z,14.30
2022-10-30T18:27:32.698Z,14.21
2022-10-30T18:30:02.704Z,14.13
2022-10-30T18:35:16.454Z,14.01
2022-10-30T18:37:45.735Z,13.96
2022-10-30T18:40:16.188Z,13.92
2022-10-30T18:42:46.058Z,13.85
2022-10-30T18:45:19.494Z,13.90
2022-10-30T18:50:32.294Z,13.71
2022-10-30T18:53:02.060Z,13.66
2022-10-30T18:55:36.654Z,13.57
2022-10-30T19:14:32.084Z,12.91
2022-10-30T19:17:00.536Z,12.94
2022-10-30T19:27:39.759Z,12.83
2022-10-30T19:32:53.498Z,12.80
2022-10-30T19:35:55.411Z,12.76
2022-10-30T19:49:27.833Z,12.16
2022-10-30T19:52:01.277Z,12.24
2022-10-30T19:54:38.099Z,12.20
2022-10-30T20:03:24.015Z,11.95
2022-10-30T20:19:55.764Z,11.50
2022-10-30T20:59:27.392Z,10.95
2022-10-30T21:04:38.034Z,10.97
2022-10-30T21:07:08.092Z,10.91
2022-10-30T21:15:04.995Z,10.22
2022-10-30T21:17:33.797Z,10.45
2022-10-30T21:22:44.520Z,10.01
2022-10-30T21:36:13.601Z,10.07
2022-10-30T21:38:47.673Z,10.12
2022-10-30T21:46:44.380Z,9.98
2022-10-30T21:49:14.923Z,10.00
2022-10-30T21:51:42.942Z,10.00
2022-10-30T21:54:11.219Z,9.71
2022-10-30T21:56:39.128Z,9.85
2022-10-30T21:59:07.170Z,9.75
2022-10-30T22:01:37.708Z,9.83
2022-10-30T22:04:08.144Z,9.81
2022-10-30T22:06:42.187Z,9.77
2022-10-30T22:09:11.565Z,9.58
2022-10-30T22:11:39.499Z,9.73
2022-10-30T22:14:07.655Z,9.78
2022-10-30T22:16:37.967Z,9.80
2022-10-30T22:19:10.338Z,9.56
2022-10-30T22:21:38.458Z,9.66
2022-10-30T22:24:06.673Z,9.48
2022-10-30T22:26:34.638Z,9.43
2022-10-30T22:29:02.493Z,9.48
2022-10-30T22:31:30.860Z,9.55
2022-10-30T22:34:02.215Z,9.18
2022-10-30T22:36:32.843Z,9.23
2022-10-30T22:39:04.147Z,9.13
2022-10-30T22:41:36.457Z,9.11
2022-10-30T22:44:08.821Z,9.07
2022-10-30T22:46:37.946Z,9.11
2022-10-30T22:49:06.363Z,9.17
2022-10-30T22:51:36.417Z,9.14
2022-10-30T22:54:06.280Z,9.10
2022-10-30T22:56:36.350Z,8.93
2022-10-30T22:59:11.716Z,8.93
2022-10-30T23:01:41.385Z,8.65
2022-10-30T23:04:11.486Z,8.78
2022-10-30T23:06:39.739Z,8.49
2022-10-30T23:09:11.898Z,8.66
2022-10-30T23:11:39.790Z,8.57
2022-10-30T23:14:07.623Z,8.75
2022-10-30T23:16:35.881Z,8.41
2022-10-30T23:19:03.901Z,8.48
2022-10-30T23:21:32.006Z,8.20
2022-10-30T23:24:02.512Z,8.33
2022-10-30T23:26:33.614Z,8.29
2022-10-30T23:29:02.357Z,8.41
2022-10-30T23:31:33.792Z,8.47
2022-10-30T23:34:05.867Z,8.46
2022-10-30T23:36:34.228Z,8.46
2022-10-30T23:39:06.546Z,8.44
2022-10-30T23:41:34.953Z,8.49
2022-10-30T23:44:06.762Z,8.58
2022-10-30T23:46:36.135Z,8.51
2022-10-30T23:49:05.240Z,8.61
2022-10-30T23:51:33.843Z,8.57
2022-10-30T23:54:02.298Z,8.38
2022-10-30T23:56:30.684Z,8.21
2022-10-30T23:59:00.089Z,8.31
